sensor_id;sensor_type;location;lat;lon;timestamp;pressure;altitude;pressure_sealevel;temperature
72278;BMP280;61204;49.980;8.358;2023-01-15T00:01:47;98921.34;;;10.47
72278;BMP280;61204;49.980;8.358;2023-01-15T00:04:12;98936.13;;;10.55
72278;BMP280;61204;49.980;8.358;2023-01-15T00:06:39;98928.09;;;10.59
72278;BMP280;61204;49.980;8.358;2023-01-15T00:09:06;98935.56;;;10.59
72278;BMP280;61204;49.980;8.358;2023-01-15T00:11:35;98939.84;;;10.62
72278;BMP280;61204;49.980;8.358;2023-01-15T00:14:01;98937.72;;;10.76
72278;BMP280;61204;49.980;8.358;2023-01-15T00:16:26;98935.34;;;10.84
72278;BMP280;61204;49.980;8.358;2023-01-15T00:18:56;98934.28;;;10.76
72278;BMP280;61204;49.980;8.358;2023-01-15T00:21:25;98923.75;;;10.70
72278;BMP280;61204;49.980;8.358;2023-01-15T00:23:55;98938.34;;;10.90
72278;BMP280;61204;49.980;8.358;2023-01-15T00:26:39;98944.53;;;10.91
72278;BMP280;61204;49.980;8.358;2023-01-15T00:29:24;98941.34;;;10.97
72278;BMP280;61204;49.980;8.358;2023-01-15T00:31:52;98943.84;;;10.90
72278;BMP280;61204;49.980;8.358;2023-01-15T00:34:22;98935.53;;;10.88
72278;BMP280;61204;49.980;8.358;2023-01-15T00:36:48;98930.84;;;10.91
72278;BMP280;61204;49.980;8.358;2023-01-15T00:39:14;98936.56;;;10.81
72278;BMP280;61204;49.980;8.358;2023-01-15T00:41:39;98915.00;;;10.74
72278;BMP280;61204;49.980;8.358;2023-01-15T00:44:05;98909.44;;;10.72
72278;BMP280;61204;49.980;8.358;2023-01-15T00:46:30;98913.59;;;10.73
72278;BMP280;61204;49.980;8.358;2023-01-15T00:48:56;98905.63;;;10.63
72278;BMP280;61204;49.980;8.358;2023-01-15T00:51:21;98914.59;;;10.64
72278;BMP280;61204;49.980;8.358;2023-01-15T00:53:47;98889.81;;;10.61
72278;BMP280;61204;49.980;8.358;2023-01-15T00:56:12;98897.47;;;10.49
72278;BMP280;61204;49.980;8.358;2023-01-15T00:58:38;98888.19;;;10.41
72278;BMP280;61204;49.980;8.358;2023-01-15T01:01:03;98883.44;;;10.41
72278;BMP280;61204;49.980;8.358;2023-01-15T01:03:29;98881.94;;;10.38
72278;BMP280;61204;49.980;8.358;2023-01-15T01:05:58;98878.84;;;10.30
72278;BMP280;61204;49.980;8.358;2023-01-15T01:08:26;98876.81;;;10.30
72278;BMP280;61204;49.980;8.358;2023-01-15T01:11:05;98868.41;;;10.26
72278;BMP280;61204;49.980;8.358;2023-01-15T01:13:33;98871.31;;;10.30
72278;BMP280;61204;49.980;8.358;2023-01-15T01:16:02;98867.41;;;10.20
72278;BMP280;61204;49.980;8.358;2023-01-15T01:18:29;98886.69;;;10.22
72278;BMP280;61204;49.980;8.358;2023-01-15T01:20:55;98883.03;;;10.17
72278;BMP280;61204;49.980;8.358;2023-01-15T01:23:21;98884.28;;;10.14
72278;BMP280;61204;49.980;8.358;2023-01-15T01:25:48;98885.16;;;10.19
72278;BMP280;61204;49.980;8.358;2023-01-15T01:28:14;98888.94;;;10.12
72278;BMP280;61204;49.980;8.358;2023-01-15T01:30:39;98884.94;;;9.99
72278;BMP280;61204;49.980;8.358;2023-01-15T01:33:05;98898.16;;;9.89
72278;BMP280;61204;49.980;8.358;2023-01-15T01:35:31;98898.19;;;9.75
72278;BMP280;61204;49.980;8.358;2023-01-15T01:37:56;98892.75;;;9.61
72278;BMP280;61204;49.980;8.358;2023-01-15T01:40:22;98887.78;;;9.58
72278;BMP280;61204;49.980;8.358;2023-01-15T01:42:47;98889.69;;;9.55
72278;BMP280;61204;49.980;8.358;2023-01-15T01:47:41;98891.75;;;9.41
72278;BMP280;61204;49.980;8.358;2023-01-15T01:50:08;98904.59;;;9.38
72278;BMP280;61204;49.980;8.358;2023-01-15T01:52:39;98902.00;;;9.40
72278;BMP280;61204;49.980;8.358;2023-01-15T01:55:11;98910.38;;;9.44
72278;BMP280;61204;49.980;8.358;2023-01-15T01:57:40;98910.50;;;9.33
72278;BMP280;61204;49.980;8.358;2023-01-15T02:00:07;98927.09;;;9.37
72278;BMP280;61204;49.980;8.358;2023-01-15T02:02:35;98935.00;;;9.31
72278;BMP280;61204;49.980;8.358;2023-01-15T02:05:02;98936.44;;;9.32
72278;BMP280;61204;49.980;8.358;2023-01-15T02:07:29;98935.81;;;9.33
72278;BMP280;61204;49.980;8.358;2023-01-15T02:09:57;98933.09;;;9.33
72278;BMP280;61204;49.980;8.358;2023-01-15T02:12:36;98935.13;;;9.33
72278;BMP280;61204;49.980;8.358;2023-01-15T02:15:08;98927.41;;;9.29
72278;BMP280;61204;49.980;8.358;2023-01-15T02:17:49;98931.69;;;9.32
72278;BMP280;61204;49.980;8.358;2023-01-15T02:20:37;98938.84;;;9.25
72278;BMP280;61204;49.980;8.358;2023-01-15T02:23:28;98938.34;;;9.29
72278;BMP280;61204;49.980;8.358;2023-01-15T02:29:31;98964.78;;;9.24
72278;BMP280;61204;49.980;8.358;2023-01-15T02:32:07;98953.03;;;9.22
72278;BMP280;61204;49.980;8.358;2023-01-15T02:34:43;98974.69;;;9.18
72278;BMP280;61204;49.980;8.358;2023-01-15T02:37:18;98970.50;;;9.03
72278;BMP280;61204;49.980;8.358;2023-01-15T02:39:50;98973.88;;;9.02
72278;BMP280;61204;49.980;8.358;2023-01-15T02:42:20;98991.47;;;8.98
72278;BMP280;61204;49.980;8.358;2023-01-15T02:44:50;98994.34;;;8.89
72278;BMP280;61204;49.980;8.358;2023-01-15T02:47:23;99006.06;;;8.78
72278;BMP280;61204;49.980;8.358;2023-01-15T02:49:56;98997.00;;;8.61
72278;BMP280;61204;49.980;8.358;2023-01-15T02:52:30;98999.63;;;8.59
72278;BMP280;61204;49.980;8.358;2023-01-15T02:55:04;98998.91;;;8.59
72278;BMP280;61204;49.980;8.358;2023-01-15T02:57:37;99006.31;;;8.56
72278;BMP280;61204;49.980;8.358;2023-01-15T03:00:09;99012.34;;;8.55
72278;BMP280;61204;49.980;8.358;2023-01-15T03:02:42;99004.06;;;8.53
72278;BMP280;61204;49.980;8.358;2023-01-15T03:05:22;99007.53;;;8.41
72278;BMP280;61204;49.980;8.358;2023-01-15T03:07:55;98990.81;;;8.35
72278;BMP280;61204;49.980;8.358;2023-01-15T03:10:45;98984.28;;;8.29
72278;BMP280;61204;49.980;8.358;2023-01-15T03:13:30;98978.88;;;8.17
72278;BMP280;61204;49.980;8.358;2023-01-15T03:16:34;98978.16;;;8.16
72278;BMP280;61204;49.980;8.358;2023-01-15T03:19:26;98986.34;;;8.16
72278;BMP280;61204;49.980;8.358;2023-01-15T03:24:56;98983.31;;;7.99
72278;BMP280;61204;49.980;8.358;2023-01-15T03:27:33;98976.31;;;7.96
72278;BMP280;61204;49.980;8.358;2023-01-15T03:30:03;98981.78;;;7.96
72278;BMP280;61204;49.980;8.358;2023-01-15T03:32:35;98979.19;;;7.86
72278;BMP280;61204;49.980;8.358;2023-01-15T03:35:01;98991.91;;;7.81
72278;BMP280;61204;49.980;8.358;2023-01-15T03:37:30;98999.94;;;7.79
72278;BMP280;61204;49.980;8.358;2023-01-15T03:39:56;98993.91;;;7.81
72278;BMP280;61204;49.980;8.358;2023-01-15T03:50:53;99015.16;;;7.71
72278;BMP280;61204;49.980;8.358;2023-01-15T03:56:21;99004.84;;;7.69
72278;BMP280;61204;49.980;8.358;2023-01-15T03:59:01;99014.44;;;7.70
72278;BMP280;61204;49.980;8.358;2023-01-15T04:01:34;99011.09;;;7.72
72278;BMP280;61204;49.980;8.358;2023-01-15T04:04:05;99021.28;;;7.71
72278;BMP280;61204;49.980;8.358;2023-01-15T04:06:33;99022.47;;;7.68
72278;BMP280;61204;49.980;8.358;2023-01-15T04:09:04;99024.25;;;7.63
72278;BMP280;61204;49.980;8.358;2023-01-15T04:11:32;99028.16;;;7.60
72278;BMP280;61204;49.980;8.358;2023-01-15T04:13:58;99038.28;;;7.58
72278;BMP280;61204;49.980;8.358;2023-01-15T04:16:25;99046.50;;;7.36
72278;BMP280;61204;49.980;8.358;2023-01-15T04:18:53;99044.94;;;7.10
72278;BMP280;61204;49.980;8.358;2023-01-15T04:21:19;99058.63;;;7.00
72278;BMP280;61204;49.980;8.358;2023-01-15T04:23:45;99070.91;;;6.90
72278;BMP280;61204;49.980;8.358;2023-01-15T04:26:11;99073.72;;;6.80
72278;BMP280;61204;49.980;8.358;2023-01-15T04:28:38;99076.53;;;6.70
72278;BMP280;61204;49.980;8.358;2023-01-15T04:31:04;99084.44;;;6.66
72278;BMP280;61204;49.980;8.358;2023-01-15T04:33:29;99084.13;;;6.62
72278;BMP280;61204;49.980;8.358;2023-01-15T04:35:57;99089.09;;;6.54
72278;BMP280;61204;49.980;8.358;2023-01-15T04:38:24;99078.72;;;6.41
72278;BMP280;61204;49.980;8.358;2023-01-15T04:40:50;99072.47;;;6.50
72278;BMP280;61204;49.980;8.358;2023-01-15T04:43:34;99075.13;;;6.38
72278;BMP280;61204;49.980;8.358;2023-01-15T04:46:21;99082.00;;;6.39
72278;BMP280;61204;49.980;8.358;2023-01-15T04:48:48;99087.81;;;6.24
72278;BMP280;61204;49.980;8.358;2023-01-15T04:51:15;99101.06;;;6.18
72278;BMP280;61204;49.980;8.358;2023-01-15T04:53:41;99112.38;;;6.14
72278;BMP280;61204;49.980;8.358;2023-01-15T04:56:06;99114.56;;;6.06
72278;BMP280;61204;49.980;8.358;2023-01-15T04:58:32;99106.69;;;6.00
72278;BMP280;61204;49.980;8.358;2023-01-15T05:00:58;99105.38;;;6.01
72278;BMP280;61204;49.980;8.358;2023-01-15T05:03:25;99097.53;;;5.96
72278;BMP280;61204;49.980;8.358;2023-01-15T05:05:52;99101.69;;;5.97
72278;BMP280;61204;49.980;8.358;2023-01-15T05:08:17;99095.13;;;5.90
72278;BMP280;61204;49.980;8.358;2023-01-15T05:10:43;99099.03;;;5.87
72278;BMP280;61204;49.980;8.358;2023-01-15T05:13:08;99105.03;;;5.86
72278;BMP280;61204;49.980;8.358;2023-01-15T05:15:34;99105.59;;;5.84
72278;BMP280;61204;49.980;8.358;2023-01-15T05:17:59;99102.72;;;5.82
72278;BMP280;61204;49.980;8.358;2023-01-15T05:20:25;99107.34;;;5.79
72278;BMP280;61204;49.980;8.358;2023-01-15T05:22:50;99108.75;;;5.80
72278;BMP280;61204;49.980;8.358;2023-01-15T05:25:16;99118.22;;;5.79
72278;BMP280;61204;49.980;8.358;2023-01-15T05:27:41;99112.53;;;5.75
72278;BMP280;61204;49.980;8.358;2023-01-15T05:30:07;99124.81;;;5.76
72278;BMP280;61204;49.980;8.358;2023-01-15T05:32:33;99134.69;;;5.72
72278;BMP280;61204;49.980;8.358;2023-01-15T05:34:58;99143.56;;;5.72
72278;BMP280;61204;49.980;8.358;2023-01-15T05:37:24;99134.41;;;5.68
72278;BMP280;61204;49.980;8.358;2023-01-15T05:39:50;99130.84;;;5.65
72278;BMP280;61204;49.980;8.358;2023-01-15T05:42:15;99142.25;;;5.64
72278;BMP280;61204;49.980;8.358;2023-01-15T05:44:41;99141.44;;;5.61
72278;BMP280;61204;49.980;8.358;2023-01-15T05:47:06;99148.03;;;5.58
72278;BMP280;61204;49.980;8.358;2023-01-15T05:49:34;99143.16;;;5.57
72278;BMP280;61204;49.980;8.358;2023-01-15T05:52:00;99152.47;;;5.53
72278;BMP280;61204;49.980;8.358;2023-01-15T05:54:28;99157.19;;;5.53
72278;BMP280;61204;49.980;8.358;2023-01-15T05:56:58;99158.31;;;5.50
72278;BMP280;61204;49.980;8.358;2023-01-15T05:59:26;99155.59;;;5.50
72278;BMP280;61204;49.980;8.358;2023-01-15T06:01:54;99150.00;;;5.48
72278;BMP280;61204;49.980;8.358;2023-01-15T06:04:21;99156.03;;;5.46
72278;BMP280;61204;49.980;8.358;2023-01-15T06:06:49;99156.63;;;5.45
72278;BMP280;61204;49.980;8.358;2023-01-15T06:09:17;99148.59;;;5.47
72278;BMP280;61204;49.980;8.358;2023-01-15T06:11:43;99145.75;;;5.45
72278;BMP280;61204;49.980;8.358;2023-01-15T06:14:11;99138.75;;;5.42
72278;BMP280;61204;49.980;8.358;2023-01-15T06:16:37;99136.28;;;5.46
72278;BMP280;61204;49.980;8.358;2023-01-15T06:19:03;99132.44;;;5.39
72278;BMP280;61204;49.980;8.358;2023-01-15T06:21:31;99146.44;;;5.36
72278;BMP280;61204;49.980;8.358;2023-01-15T06:23:58;99159.34;;;5.35
72278;BMP280;61204;49.980;8.358;2023-01-15T06:26:24;99170.91;;;5.36
72278;BMP280;61204;49.980;8.358;2023-01-15T06:28:51;99157.63;;;5.30
72278;BMP280;61204;49.980;8.358;2023-01-15T06:31:18;99175.34;;;5.31
72278;BMP280;61204;49.980;8.358;2023-01-15T06:33:46;99177.22;;;5.28
72278;BMP280;61204;49.980;8.358;2023-01-15T06:36:15;99170.78;;;5.24
72278;BMP280;61204;49.980;8.358;2023-01-15T06:38:47;99173.91;;;5.20
72278;BMP280;61204;49.980;8.358;2023-01-15T06:41:20;99179.94;;;5.19
72278;BMP280;61204;49.980;8.358;2023-01-15T06:44:11;99179.75;;;5.17
72278;BMP280;61204;49.980;8.358;2023-01-15T06:47:00;99200.22;;;5.18
72278;BMP280;61204;49.980;8.358;2023-01-15T06:49:53;99187.34;;;5.18
72278;BMP280;61204;49.980;8.358;2023-01-15T06:52:22;99185.63;;;5.13
72278;BMP280;61204;49.980;8.358;2023-01-15T06:54:49;99182.06;;;5.11
72278;BMP280;61204;49.980;8.358;2023-01-15T06:57:15;99200.34;;;5.10
72278;BMP280;61204;49.980;8.358;2023-01-15T06:59:42;99191.50;;;5.10
72278;BMP280;61204;49.980;8.358;2023-01-15T07:02:09;99195.63;;;5.11
72278;BMP280;61204;49.980;8.358;2023-01-15T07:04:36;99179.34;;;5.11
72278;BMP280;61204;49.980;8.358;2023-01-15T07:07:02;99186.06;;;5.10
72278;BMP280;61204;49.980;8.358;2023-01-15T07:09:28;99190.19;;;5.11
72278;BMP280;61204;49.980;8.358;2023-01-15T07:11:53;99198.50;;;5.13
72278;BMP280;61204;49.980;8.358;2023-01-15T07:14:20;99193.75;;;5.13
72278;BMP280;61204;49.980;8.358;2023-01-15T07:16:49;99214.06;;;5.12
72278;BMP280;61204;49.980;8.358;2023-01-15T07:19:16;99214.22;;;5.14
72278;BMP280;61204;49.980;8.358;2023-01-15T07:21:42;99223.66;;;5.13
72278;BMP280;61204;49.980;8.358;2023-01-15T07:24:11;99231.22;;;5.15
72278;BMP280;61204;49.980;8.358;2023-01-15T07:26:38;99227.78;;;5.14
72278;BMP280;61204;49.980;8.358;2023-01-15T07:29:03;99230.69;;;5.16
72278;BMP280;61204;49.980;8.358;2023-01-15T07:31:29;99240.13;;;5.15
72278;BMP280;61204;49.980;8.358;2023-01-15T07:33:55;99239.53;;;5.17
72278;BMP280;61204;49.980;8.358;2023-01-15T07:36:21;99235.13;;;5.21
72278;BMP280;61204;49.980;8.358;2023-01-15T07:38:47;99248.28;;;5.25
72278;BMP280;61204;49.980;8.358;2023-01-15T07:41:13;99247.72;;;5.26
72278;BMP280;61204;49.980;8.358;2023-01-15T07:43:57;99258.28;;;5.32
72278;BMP280;61204;49.980;8.358;2023-01-15T07:46:41;99260.59;;;5.36
72278;BMP280;61204;49.980;8.358;2023-01-15T07:49:25;99256.47;;;5.35
72278;BMP280;61204;49.980;8.358;2023-01-15T07:52:09;99262.75;;;5.27
72278;BMP280;61204;49.980;8.358;2023-01-15T07:54:40;99269.59;;;5.28
72278;BMP280;61204;49.980;8.358;2023-01-15T07:57:06;99277.06;;;5.38
72278;BMP280;61204;49.980;8.358;2023-01-15T07:59:33;99273.59;;;5.37
72278;BMP280;61204;49.980;8.358;2023-01-15T08:01:58;99267.16;;;5.33
72278;BMP280;61204;49.980;8.358;2023-01-15T08:04:24;99276.44;;;5.29
72278;BMP280;61204;49.980;8.358;2023-01-15T08:06:49;99279.91;;;5.30
72278;BMP280;61204;49.980;8.358;2023-01-15T08:09:15;99282.03;;;5.32
72278;BMP280;61204;49.980;8.358;2023-01-15T08:11:40;99278.88;;;5.25
72278;BMP280;61204;49.980;8.358;2023-01-15T08:14:24;99288.91;;;5.23
72278;BMP280;61204;49.980;8.358;2023-01-15T08:17:08;99293.63;;;5.22
72278;BMP280;61204;49.980;8.358;2023-01-15T08:19:36;99304.78;;;5.26
72278;BMP280;61204;49.980;8.358;2023-01-15T08:22:01;99302.06;;;5.26
72278;BMP280;61204;49.980;8.358;2023-01-15T08:24:27;99296.34;;;5.22
72278;BMP280;61204;49.980;8.358;2023-01-15T08:26:53;99304.91;;;5.19
72278;BMP280;61204;49.980;8.358;2023-01-15T08:29:19;99293.47;;;5.20
72278;BMP280;61204;49.980;8.358;2023-01-15T08:31:46;99295.31;;;5.18
72278;BMP280;61204;49.980;8.358;2023-01-15T08:34:13;99298.59;;;5.16
72278;BMP280;61204;49.980;8.358;2023-01-15T08:36:43;99306.59;;;5.14
72278;BMP280;61204;49.980;8.358;2023-01-15T08:39:09;99300.03;;;5.17
72278;BMP280;61204;49.980;8.358;2023-01-15T08:41:35;99307.63;;;5.19
72278;BMP280;61204;49.980;8.358;2023-01-15T08:44:00;99309.19;;;5.22
72278;BMP280;61204;49.980;8.358;2023-01-15T08:46:26;99321.50;;;5.23
72278;BMP280;61204;49.980;8.358;2023-01-15T08:48:51;99319.91;;;5.29
72278;BMP280;61204;49.980;8.358;2023-01-15T08:51:17;99337.69;;;5.31
72278;BMP280;61204;49.980;8.358;2023-01-15T08:53:43;99334.38;;;5.32
72278;BMP280;61204;49.980;8.358;2023-01-15T08:56:13;99320.66;;;5.30
72278;BMP280;61204;49.980;8.358;2023-01-15T08:58:41;99329.84;;;5.35
72278;BMP280;61204;49.980;8.358;2023-01-15T09:01:08;99341.25;;;5.33
72278;BMP280;61204;49.980;8.358;2023-01-15T09:03:39;99358.03;;;5.39
72278;BMP280;61204;49.980;8.358;2023-01-15T09:06:07;99357.88;;;5.47
72278;BMP280;61204;49.980;8.358;2023-01-15T09:08:35;99388.41;;;5.55
72278;BMP280;61204;49.980;8.358;2023-01-15T09:11:01;99387.09;;;5.56
72278;BMP280;61204;49.980;8.358;2023-01-15T09:13:29;99390.97;;;5.53
72278;BMP280;61204;49.980;8.358;2023-01-15T09:16:02;99387.09;;;5.56
72278;BMP280;61204;49.980;8.358;2023-01-15T09:18:30;99388.25;;;5.53
72278;BMP280;61204;49.980;8.358;2023-01-15T09:20:57;99382.25;;;5.54
72278;BMP280;61204;49.980;8.358;2023-01-15T09:23:23;99388.09;;;5.51
72278;BMP280;61204;49.980;8.358;2023-01-15T09:25:50;99400.28;;;5.60
72278;BMP280;61204;49.980;8.358;2023-01-15T09:28:16;99401.03;;;5.70
72278;BMP280;61204;49.980;8.358;2023-01-15T09:30:44;99420.47;;;5.66
72278;BMP280;61204;49.980;8.358;2023-01-15T09:33:10;99436.84;;;5.76
72278;BMP280;61204;49.980;8.358;2023-01-15T09:35:35;99454.47;;;5.85
72278;BMP280;61204;49.980;8.358;2023-01-15T09:38:01;99452.16;;;5.81
72278;BMP280;61204;49.980;8.358;2023-01-15T09:40:42;99462.16;;;5.78
72278;BMP280;61204;49.980;8.358;2023-01-15T09:46:10;99489.63;;;5.73
72278;BMP280;61204;49.980;8.358;2023-01-15T09:48:59;99486.34;;;5.74
72278;BMP280;61204;49.980;8.358;2023-01-15T09:52:13;99497.22;;;5.74
72278;BMP280;61204;49.980;8.358;2023-01-15T09:58:04;99482.66;;;5.79
72278;BMP280;61204;49.980;8.358;2023-01-15T10:00:37;99486.22;;;5.82
72278;BMP280;61204;49.980;8.358;2023-01-15T10:05:55;99504.31;;;5.87
72278;BMP280;61204;49.980;8.358;2023-01-15T10:08:33;99496.69;;;5.86
72278;BMP280;61204;49.980;8.358;2023-01-15T10:13:48;99520.31;;;5.93
72278;BMP280;61204;49.980;8.358;2023-01-15T10:16:24;99537.84;;;5.99
72278;BMP280;61204;49.980;8.358;2023-01-15T10:18:53;99539.97;;;6.01
72278;BMP280;61204;49.980;8.358;2023-01-15T10:24:11;99529.91;;;5.94
72278;BMP280;61204;49.980;8.358;2023-01-15T10:46:17;99540.78;;;5.94
72278;BMP280;61204;49.980;8.358;2023-01-15T10:48:53;99532.75;;;5.86
72278;BMP280;61204;49.980;8.358;2023-01-15T10:54:28;99529.03;;;5.82
72278;BMP280;61204;49.980;8.358;2023-01-15T10:57:13;99529.31;;;5.86
72278;BMP280;61204;49.980;8.358;2023-01-15T10:59:57;99546.78;;;5.83
72278;BMP280;61204;49.980;8.358;2023-01-15T11:02:26;99531.44;;;5.77
72278;BMP280;61204;49.980;8.358;2023-01-15T11:04:58;99544.22;;;5.85
72278;BMP280;61204;49.980;8.358;2023-01-15T11:07:36;99564.44;;;5.91
72278;BMP280;61204;49.980;8.358;2023-01-15T11:10:08;99563.13;;;5.92
72278;BMP280;61204;49.980;8.358;2023-01-15T11:12:39;99562.13;;;5.88
72278;BMP280;61204;49.980;8.358;2023-01-15T11:15:34;99553.25;;;5.87
72278;BMP280;61204;49.980;8.358;2023-01-15T11:18:22;99572.31;;;5.97
72278;BMP280;61204;49.980;8.358;2023-01-15T11:21:17;99560.63;;;6.04
72278;BMP280;61204;49.980;8.358;2023-01-15T11:23:48;99575.84;;;6.26
72278;BMP280;61204;49.980;8.358;2023-01-15T11:26:20;99582.91;;;6.49
72278;BMP280;61204;49.980;8.358;2023-01-15T11:28:49;99598.47;;;6.95
72278;BMP280;61204;49.980;8.358;2023-01-15T11:31:18;99608.13;;;7.66
72278;BMP280;61204;49.980;8.358;2023-01-15T11:34:00;99611.41;;;8.14
72278;BMP280;61204;49.980;8.358;2023-01-15T11:36:29;99632.47;;;8.88
72278;BMP280;61204;49.980;8.358;2023-01-15T11:38:56;99628.09;;;9.16
72278;BMP280;61204;49.980;8.358;2023-01-15T11:44:18;99639.38;;;9.67
72278;BMP280;61204;49.980;8.358;2023-01-15T11:47:11;99641.63;;;10.17
72278;BMP280;61204;49.980;8.358;2023-01-15T11:50:01;99635.16;;;10.48
72278;BMP280;61204;49.980;8.358;2023-01-15T11:52:59;99639.34;;;10.74
72278;BMP280;61204;49.980;8.358;2023-01-15T11:55:25;99646.13;;;10.85
72278;BMP280;61204;49.980;8.358;2023-01-15T11:57:53;99638.25;;;10.91
72278;BMP280;61204;49.980;8.358;2023-01-15T12:00:22;99631.00;;;10.84
72278;BMP280;61204;49.980;8.358;2023-01-15T12:02:59;99625.03;;;10.87
72278;BMP280;61204;49.980;8.358;2023-01-15T12:05:53;99632.72;;;11.03
72278;BMP280;61204;49.980;8.358;2023-01-15T12:08:45;99602.41;;;11.01
72278;BMP280;61204;49.980;8.358;2023-01-15T12:28:11;99609.19;;;11.78
72278;BMP280;61204;49.980;8.358;2023-01-15T12:31:10;99596.34;;;11.83
72278;BMP280;61204;49.980;8.358;2023-01-15T12:36:28;99586.75;;;12.39
72278;BMP280;61204;49.980;8.358;2023-01-15T12:39:19;99593.47;;;12.65
72278;BMP280;61204;49.980;8.358;2023-01-15T12:42:12;99590.06;;;13.59
72278;BMP280;61204;49.980;8.358;2023-01-15T12:48:12;99598.16;;;13.24
72278;BMP280;61204;49.980;8.358;2023-01-15T12:50:47;99602.31;;;13.40
72278;BMP280;61204;49.980;8.358;2023-01-15T12:53:23;99597.50;;;13.57
72278;BMP280;61204;49.980;8.358;2023-01-15T13:04:49;99588.34;;;11.87
72278;BMP280;61204;49.980;8.358;2023-01-15T13:10:34;99615.81;;;10.95
72278;BMP280;61204;49.980;8.358;2023-01-15T13:13:15;99614.78;;;10.88
72278;BMP280;61204;49.980;8.358;2023-01-15T13:21:12;99604.28;;;10.22
72278;BMP280;61204;49.980;8.358;2023-01-15T13:29:29;99598.78;;;10.10
72278;BMP280;61204;49.980;8.358;2023-01-15T13:32:25;99598.81;;;9.87
72278;BMP280;61204;49.980;8.358;2023-01-15T13:35:09;99617.84;;;10.08
72278;BMP280;61204;49.980;8.358;2023-01-15T13:37:46;99619.00;;;10.66
72278;BMP280;61204;49.980;8.358;2023-01-15T13:43:01;99628.69;;;10.92
72278;BMP280;61204;49.980;8.358;2023-01-15T13:45:38;99625.84;;;10.90
72278;BMP280;61204;49.980;8.358;2023-01-15T13:48:11;99615.63;;;10.42
72278;BMP280;61204;49.980;8.358;2023-01-15T13:50:49;99622.25;;;10.01
72278;BMP280;61204;49.980;8.358;2023-01-15T13:56:01;99622.50;;;9.94
72278;BMP280;61204;49.980;8.358;2023-01-15T13:58:39;99618.53;;;9.50
72278;BMP280;61204;49.980;8.358;2023-01-15T14:06:44;99598.41;;;9.01
72278;BMP280;61204;49.980;8.358;2023-01-15T14:17:29;99604.25;;;10.59
72278;BMP280;61204;49.980;8.358;2023-01-15T14:29:10;99619.13;;;9.04
72278;BMP280;61204;49.980;8.358;2023-01-15T14:35:01;99634.75;;;8.70
72278;BMP280;61204;49.980;8.358;2023-01-15T14:37:42;99649.38;;;8.63
72278;BMP280;61204;49.980;8.358;2023-01-15T14:40:49;99638.34;;;8.51
72278;BMP280;61204;49.980;8.358;2023-01-15T14:43:19;99628.06;;;8.40
72278;BMP280;61204;49.980;8.358;2023-01-15T14:45:48;99634.56;;;8.35
72278;BMP280;61204;49.980;8.358;2023-01-15T14:48:17;99629.53;;;8.31
72278;BMP280;61204;49.980;8.358;2023-01-15T14:50:52;99655.78;;;8.67
72278;BMP280;61204;49.980;8.358;2023-01-15T14:53:49;99656.34;;;9.09
72278;BMP280;61204;49.980;8.358;2023-01-15T14:56:27;99663.31;;;9.21
72278;BMP280;61204;49.980;8.358;2023-01-15T14:59:01;99662.19;;;9.15
72278;BMP280;61204;49.980;8.358;2023-01-15T15:01:35;99671.25;;;9.17
72278;BMP280;61204;49.980;8.358;2023-01-15T15:04:24;99696.06;;;9.10
72278;BMP280;61204;49.980;8.358;2023-01-15T15:07:11;99701.66;;;9.12
72278;BMP280;61204;49.980;8.358;2023-01-15T15:09:44;99691.44;;;9.12
72278;BMP280;61204;49.980;8.358;2023-01-15T15:12:29;99708.22;;;9.18
72278;BMP280;61204;49.980;8.358;2023-01-15T15:26:30;99733.00;;;8.37
72278;BMP280;61204;49.980;8.358;2023-01-15T15:29:19;99725.34;;;8.14
72278;BMP280;61204;49.980;8.358;2023-01-15T15:31:52;99726.38;;;7.99
72278;BMP280;61204;49.980;8.358;2023-01-15T15:37:02;99721.41;;;7.67
72278;BMP280;61204;49.980;8.358;2023-01-15T15:39:40;99709.50;;;7.62
72278;BMP280;61204;49.980;8.358;2023-01-15T15:42:16;99713.22;;;7.57
72278;BMP280;61204;49.980;8.358;2023-01-15T15:45:23;99713.25;;;7.47
72278;BMP280;61204;49.980;8.358;2023-01-15T15:51:04;99708.09;;;7.32
72278;BMP280;61204;49.980;8.358;2023-01-15T15:53:46;99705.06;;;7.28
72278;BMP280;61204;49.980;8.358;2023-01-15T15:56:11;99705.22;;;7.20
72278;BMP280;61204;49.980;8.358;2023-01-15T15:58:37;99704.78;;;7.24
72278;BMP280;61204;49.980;8.358;2023-01-15T16:01:03;99696.56;;;7.14
72278;BMP280;61204;49.980;8.358;2023-01-15T16:03:30;99701.44;;;7.06
72278;BMP280;61204;49.980;8.358;2023-01-15T16:06:01;99701.63;;;7.08
72278;BMP280;61204;49.980;8.358;2023-01-15T16:08:28;99685.97;;;7.08
72278;BMP280;61204;49.980;8.358;2023-01-15T16:10:57;99687.38;;;7.00
72278;BMP280;61204;49.980;8.358;2023-01-15T16:13:31;99691.69;;;6.93
72278;BMP280;61204;49.980;8.358;2023-01-15T16:16:02;99688.81;;;6.81
72278;BMP280;61204;49.980;8.358;2023-01-15T16:18:36;99683.91;;;6.70
72278;BMP280;61204;49.980;8.358;2023-01-15T16:21:08;99690.84;;;6.54
72278;BMP280;61204;49.980;8.358;2023-01-15T16:24:00;99694.13;;;6.43
72278;BMP280;61204;49.980;8.358;2023-01-15T16:26:29;99694.22;;;6.35
72278;BMP280;61204;49.980;8.358;2023-01-15T16:29:05;99707.94;;;6.27
72278;BMP280;61204;49.980;8.358;2023-01-15T16:31:47;99688.97;;;6.10
72278;BMP280;61204;49.980;8.358;2023-01-15T16:34:15;99674.63;;;6.10
72278;BMP280;61204;49.980;8.358;2023-01-15T16:36:46;99687.06;;;6.03
72278;BMP280;61204;49.980;8.358;2023-01-15T16:39:44;99689.00;;;5.93
72278;BMP280;61204;49.980;8.358;2023-01-15T16:45:23;99680.00;;;5.73
72278;BMP280;61204;49.980;8.358;2023-01-15T16:48:01;99684.34;;;5.76
72278;BMP280;61204;49.980;8.358;2023-01-15T16:50:51;99688.41;;;5.67
72278;BMP280;61204;49.980;8.358;2023-01-15T16:53:59;99685.63;;;5.58
72278;BMP280;61204;49.980;8.358;2023-01-15T16:59:04;99690.00;;;5.70
72278;BMP280;61204;49.980;8.358;2023-01-15T17:01:43;99698.25;;;5.63
72278;BMP280;61204;49.980;8.358;2023-01-15T17:10:02;99690.91;;;5.38
72278;BMP280;61204;49.980;8.358;2023-01-15T17:12:37;99687.88;;;5.34
72278;BMP280;61204;49.980;8.358;2023-01-15T17:17:41;99680.75;;;5.21
72278;BMP280;61204;49.980;8.358;2023-01-15T17:20:15;99668.03;;;5.07
72278;BMP280;61204;49.980;8.358;2023-01-15T17:22:43;99676.09;;;4.97
72278;BMP280;61204;49.980;8.358;2023-01-15T17:25:26;99659.34;;;4.83
72278;BMP280;61204;49.980;8.358;2023-01-15T17:27:55;99657.44;;;4.76
72278;BMP280;61204;49.980;8.358;2023-01-15T17:30:23;99655.72;;;4.63
72278;BMP280;61204;49.980;8.358;2023-01-15T17:32:58;99639.09;;;4.59
72278;BMP280;61204;49.980;8.358;2023-01-15T17:35:26;99629.97;;;4.47
72278;BMP280;61204;49.980;8.358;2023-01-15T17:37:57;99624.25;;;4.35